sensor_id;sensor_type;location;lat;lon;timestamp;P1;durP1;ratioP1;P2;durP2;ratioP2
28022;SDS011;67403;50.104;8.758;2023-02-28T00:01:44;5.25;;;2.72;;
28022;SDS011;67403;50.104;8.758;2023-02-28T00:04:11;4.45;;;2.03;;
28022;SDS011;67403;50.104;8.758;2023-02-28T00:06:38;3.67;;;2.33;;
28022;SDS011;67403;50.104;8.758;2023-02-28T00:09:05;2.42;;;1.83;;
28022;SDS011;67403;50.104;8.758;2023-02-28T00:11:31;2.92;;;2.33;;
28022;SDS011;67403;50.104;8.758;2023-02-28T00:13:58;2.20;;;2.00;;
28022;SDS011;67403;50.104;8.758;2023-02-28T00:16:25;7.18;;;2.28;;
28022;SDS011;67403;50.104;8.758;2023-02-28T00:18:53;3.53;;;2.38;;
28022;SDS011;67403;50.104;8.758;2023-02-28T00:21:20;2.92;;;2.10;;
28022;SDS011;67403;50.104;8.758;2023-02-28T00:23:47;2.83;;;2.10;;
28022;SDS011;67403;50.104;8.758;2023-02-28T00:26:14;2.70;;;2.40;;
28022;SDS011;67403;50.104;8.758;2023-02-28T00:28:41;3.70;;;2.08;;
28022;SDS011;67403;50.104;8.758;2023-02-28T00:31:08;3.80;;;2.65;;
28022;SDS011;67403;50.104;8.758;2023-02-28T00:33:35;3.47;;;2.45;;
28022;SDS011;67403;50.104;8.758;2023-02-28T00:36:04;5.25;;;2.25;;
28022;SDS011;67403;50.104;8.758;2023-02-28T00:38:33;3.65;;;2.45;;
28022;SDS011;67403;50.104;8.758;2023-02-28T00:41:00;2.95;;;2.08;;
28022;SDS011;67403;50.104;8.758;2023-02-28T00:43:30;6.18;;;2.63;;
28022;SDS011;67403;50.104;8.758;2023-02-28T00:45:57;3.80;;;2.78;;
28022;SDS011;67403;50.104;8.758;2023-02-28T00:48:24;5.43;;;2.28;;
28022;SDS011;67403;50.104;8.758;2023-02-28T00:50:51;3.45;;;2.45;;
28022;SDS011;67403;50.104;8.758;2023-02-28T00:53:20;2.97;;;2.22;;
28022;SDS011;67403;50.104;8.758;2023-02-28T00:55:48;3.75;;;2.42;;
28022;SDS011;67403;50.104;8.758;2023-02-28T00:58:15;4.03;;;2.63;;
28022;SDS011;67403;50.104;8.758;2023-02-28T01:00:42;4.57;;;2.92;;
28022;SDS011;67403;50.104;8.758;2023-02-28T01:03:14;4.95;;;2.50;;
28022;SDS011;67403;50.104;8.758;2023-02-28T01:05:42;5.38;;;2.50;;
28022;SDS011;67403;50.104;8.758;2023-02-28T01:08:09;5.55;;;2.47;;
28022;SDS011;67403;50.104;8.758;2023-02-28T01:10:37;11.30;;;2.78;;
28022;SDS011;67403;50.104;8.758;2023-02-28T01:13:04;4.13;;;2.80;;
28022;SDS011;67403;50.104;8.758;2023-02-28T01:15:31;2.58;;;2.38;;
28022;SDS011;67403;50.104;8.758;2023-02-28T01:17:58;8.07;;;3.03;;
28022;SDS011;67403;50.104;8.758;2023-02-28T01:20:25;3.90;;;2.42;;
28022;SDS011;67403;50.104;8.758;2023-02-28T01:22:52;3.63;;;2.22;;
28022;SDS011;67403;50.104;8.758;2023-02-28T01:25:18;3.25;;;2.78;;
28022;SDS011;67403;50.104;8.758;2023-02-28T01:27:47;3.67;;;2.55;;
28022;SDS011;67403;50.104;8.758;2023-02-28T01:30:13;5.63;;;2.60;;
28022;SDS011;67403;50.104;8.758;2023-02-28T01:32:40;5.68;;;3.03;;
28022;SDS011;67403;50.104;8.758;2023-02-28T01:35:08;4.38;;;3.00;;
28022;SDS011;67403;50.104;8.758;2023-02-28T01:37:35;4.72;;;2.85;;
28022;SDS011;67403;50.104;8.758;2023-02-28T01:40:01;2.75;;;2.35;;
28022;SDS011;67403;50.104;8.758;2023-02-28T01:42:29;4.85;;;2.85;;
28022;SDS011;67403;50.104;8.758;2023-02-28T01:45:14;5.70;;;2.90;;
28022;SDS011;67403;50.104;8.758;2023-02-28T01:47:47;3.35;;;2.47;;
28022;SDS011;67403;50.104;8.758;2023-02-28T01:50:16;4.53;;;3.40;;
28022;SDS011;67403;50.104;8.758;2023-02-28T01:52:47;4.75;;;3.03;;
28022;SDS011;67403;50.104;8.758;2023-02-28T01:55:16;4.35;;;2.35;;
28022;SDS011;67403;50.104;8.758;2023-02-28T01:57:45;3.53;;;2.47;;
28022;SDS011;67403;50.104;8.758;2023-02-28T02:00:16;4.35;;;2.33;;
28022;SDS011;67403;50.104;8.758;2023-02-28T02:02:46;6.53;;;2.60;;
28022;SDS011;67403;50.104;8.758;2023-02-28T02:05:16;5.88;;;3.22;;
28022;SDS011;67403;50.104;8.758;2023-02-28T02:07:46;9.15;;;3.00;;
28022;SDS011;67403;50.104;8.758;2023-02-28T02:10:17;4.70;;;2.53;;
28022;SDS011;67403;50.104;8.758;2023-02-28T02:12:55;3.63;;;2.47;;
28022;SDS011;67403;50.104;8.758;2023-02-28T02:15:40;4.97;;;2.85;;
28022;SDS011;67403;50.104;8.758;2023-02-28T02:18:14;4.18;;;2.58;;
28022;SDS011;67403;50.104;8.758;2023-02-28T02:23:49;3.80;;;2.38;;
28022;SDS011;67403;50.104;8.758;2023-02-28T02:26:51;3.28;;;2.45;;
28022;SDS011;67403;50.104;8.758;2023-02-28T02:29:43;3.67;;;2.85;;
28022;SDS011;67403;50.104;8.758;2023-02-28T02:32:43;2.92;;;2.55;;
28022;SDS011;67403;50.104;8.758;2023-02-28T02:35:26;8.80;;;3.05;;
28022;SDS011;67403;50.104;8.758;2023-02-28T02:37:57;2.63;;;2.38;;
28022;SDS011;67403;50.104;8.758;2023-02-28T02:40:30;3.70;;;2.42;;
28022;SDS011;67403;50.104;8.758;2023-02-28T02:43:00;4.43;;;2.80;;
28022;SDS011;67403;50.104;8.758;2023-02-28T02:45:34;3.08;;;2.45;;
28022;SDS011;67403;50.104;8.758;2023-02-28T02:48:06;3.08;;;2.65;;
28022;SDS011;67403;50.104;8.758;2023-02-28T02:50:38;3.28;;;2.38;;
28022;SDS011;67403;50.104;8.758;2023-02-28T02:53:09;4.47;;;2.85;;
28022;SDS011;67403;50.104;8.758;2023-02-28T02:55:40;5.05;;;2.90;;
28022;SDS011;67403;50.104;8.758;2023-02-28T02:58:10;2.83;;;2.30;;
28022;SDS011;67403;50.104;8.758;2023-02-28T03:00:43;6.45;;;2.92;;
28022;SDS011;67403;50.104;8.758;2023-02-28T03:03:14;5.00;;;3.08;;
28022;SDS011;67403;50.104;8.758;2023-02-28T03:05:47;4.90;;;2.83;;
28022;SDS011;67403;50.104;8.758;2023-02-28T03:08:16;3.28;;;2.60;;
28022;SDS011;67403;50.104;8.758;2023-02-28T03:10:43;4.75;;;2.83;;
28022;SDS011;67403;50.104;8.758;2023-02-28T03:16:34;2.50;;;2.15;;
28022;SDS011;67403;50.104;8.758;2023-02-28T03:19:06;2.90;;;2.63;;
28022;SDS011;67403;50.104;8.758;2023-02-28T03:21:49;2.47;;;1.60;;
28022;SDS011;67403;50.104;8.758;2023-02-28T03:24:27;6.07;;;2.47;;
28022;SDS011;67403;50.104;8.758;2023-02-28T03:27:03;3.67;;;2.63;;
28022;SDS011;67403;50.104;8.758;2023-02-28T03:29:34;3.20;;;2.10;;
28022;SDS011;67403;50.104;8.758;2023-02-28T03:32:07;2.67;;;2.15;;
28022;SDS011;67403;50.104;8.758;2023-02-28T03:34:41;2.47;;;1.95;;
28022;SDS011;67403;50.104;8.758;2023-02-28T03:37:15;4.07;;;2.63;;
28022;SDS011;67403;50.104;8.758;2023-02-28T03:39:47;4.07;;;2.30;;
28022;SDS011;67403;50.104;8.758;2023-02-28T03:42:20;3.38;;;2.50;;
28022;SDS011;67403;50.104;8.758;2023-02-28T03:44:51;3.85;;;2.33;;
28022;SDS011;67403;50.104;8.758;2023-02-28T03:47:24;3.17;;;1.63;;
28022;SDS011;67403;50.104;8.758;2023-02-28T03:49:55;3.80;;;2.55;;
28022;SDS011;67403;50.104;8.758;2023-02-28T03:52:27;3.38;;;2.75;;
28022;SDS011;67403;50.104;8.758;2023-02-28T03:54:58;4.78;;;2.72;;
28022;SDS011;67403;50.104;8.758;2023-02-28T03:57:32;3.15;;;2.17;;
28022;SDS011;67403;50.104;8.758;2023-02-28T04:00:05;2.70;;;2.22;;
28022;SDS011;67403;50.104;8.758;2023-02-28T04:02:34;5.78;;;2.28;;
28022;SDS011;67403;50.104;8.758;2023-02-28T04:05:02;4.40;;;2.45;;
28022;SDS011;67403;50.104;8.758;2023-02-28T04:07:30;4.32;;;1.90;;
28022;SDS011;67403;50.104;8.758;2023-02-28T04:09:57;3.83;;;2.90;;
28022;SDS011;67403;50.104;8.758;2023-02-28T04:12:25;3.22;;;2.72;;
28022;SDS011;67403;50.104;8.758;2023-02-28T04:15:12;2.63;;;2.10;;
28022;SDS011;67403;50.104;8.758;2023-02-28T04:17:59;1.85;;;1.55;;
28022;SDS011;67403;50.104;8.758;2023-02-28T04:20:45;2.15;;;1.70;;
28022;SDS011;67403;50.104;8.758;2023-02-28T04:23:33;2.72;;;1.90;;
28022;SDS011;67403;50.104;8.758;2023-02-28T04:26:20;3.10;;;2.08;;
28022;SDS011;67403;50.104;8.758;2023-02-28T04:28:47;4.50;;;2.38;;
28022;SDS011;67403;50.104;8.758;2023-02-28T04:31:14;3.72;;;2.17;;
28022;SDS011;67403;50.104;8.758;2023-02-28T04:33:41;3.85;;;2.53;;
28022;SDS011;67403;50.104;8.758;2023-02-28T04:36:08;2.47;;;2.10;;
28022;SDS011;67403;50.104;8.758;2023-02-28T04:38:37;3.92;;;2.35;;
28022;SDS011;67403;50.104;8.758;2023-02-28T04:41:04;2.70;;;1.95;;
28022;SDS011;67403;50.104;8.758;2023-02-28T04:43:32;2.00;;;1.55;;
28022;SDS011;67403;50.104;8.758;2023-02-28T04:46:01;3.17;;;2.00;;
28022;SDS011;67403;50.104;8.758;2023-02-28T04:48:30;2.78;;;2.00;;
28022;SDS011;67403;50.104;8.758;2023-02-28T04:50:59;4.05;;;2.33;;
28022;SDS011;67403;50.104;8.758;2023-02-28T04:53:27;3.58;;;2.33;;
28022;SDS011;67403;50.104;8.758;2023-02-28T04:55:55;7.75;;;2.13;;
28022;SDS011;67403;50.104;8.758;2023-02-28T04:58:22;4.65;;;2.28;;
28022;SDS011;67403;50.104;8.758;2023-02-28T05:00:49;2.95;;;2.03;;
28022;SDS011;67403;50.104;8.758;2023-02-28T05:03:16;4.10;;;2.55;;
28022;SDS011;67403;50.104;8.758;2023-02-28T05:05:43;4.03;;;2.10;;
28022;SDS011;67403;50.104;8.758;2023-02-28T05:08:10;3.15;;;2.55;;
28022;SDS011;67403;50.104;8.758;2023-02-28T05:10:37;3.08;;;2.15;;
28022;SDS011;67403;50.104;8.758;2023-02-28T05:13:05;3.03;;;2.35;;
28022;SDS011;67403;50.104;8.758;2023-02-28T05:15:32;2.78;;;1.85;;
28022;SDS011;67403;50.104;8.758;2023-02-28T05:17:59;2.28;;;1.67;;
28022;SDS011;67403;50.104;8.758;2023-02-28T05:20:26;2.42;;;1.80;;
28022;SDS011;67403;50.104;8.758;2023-02-28T05:22:53;3.17;;;2.17;;
28022;SDS011;67403;50.104;8.758;2023-02-28T05:25:20;2.85;;;1.83;;
28022;SDS011;67403;50.104;8.758;2023-02-28T05:27:47;2.53;;;1.67;;
28022;SDS011;67403;50.104;8.758;2023-02-28T05:30:16;2.47;;;1.98;;
28022;SDS011;67403;50.104;8.758;2023-02-28T05:32:43;3.53;;;1.88;;
28022;SDS011;67403;50.104;8.758;2023-02-28T05:35:15;3.28;;;2.15;;
28022;SDS011;67403;50.104;8.758;2023-02-28T05:37:42;3.22;;;2.08;;
28022;SDS011;67403;50.104;8.758;2023-02-28T05:40:10;6.78;;;2.20;;
28022;SDS011;67403;50.104;8.758;2023-02-28T05:42:37;2.47;;;1.92;;
28022;SDS011;67403;50.104;8.758;2023-02-28T05:45:05;4.30;;;2.08;;
28022;SDS011;67403;50.104;8.758;2023-02-28T05:47:34;5.78;;;2.47;;
28022;SDS011;67403;50.104;8.758;2023-02-28T05:50:01;6.60;;;2.22;;
28022;SDS011;67403;50.104;8.758;2023-02-28T05:52:28;5.60;;;2.20;;
28022;SDS011;67403;50.104;8.758;2023-02-28T05:54:56;5.25;;;2.20;;
28022;SDS011;67403;50.104;8.758;2023-02-28T05:57:23;2.22;;;1.80;;
28022;SDS011;67403;50.104;8.758;2023-02-28T05:59:51;4.47;;;2.13;;
28022;SDS011;67403;50.104;8.758;2023-02-28T06:02:18;3.83;;;2.28;;
28022;SDS011;67403;50.104;8.758;2023-02-28T06:04:46;2.95;;;1.73;;
28022;SDS011;67403;50.104;8.758;2023-02-28T06:07:13;1.75;;;1.42;;
28022;SDS011;67403;50.104;8.758;2023-02-28T06:09:40;3.25;;;1.52;;
28022;SDS011;67403;50.104;8.758;2023-02-28T06:12:07;2.72;;;1.83;;
28022;SDS011;67403;50.104;8.758;2023-02-28T06:14:35;4.18;;;1.70;;
28022;SDS011;67403;50.104;8.758;2023-02-28T06:17:03;4.00;;;2.30;;
28022;SDS011;67403;50.104;8.758;2023-02-28T06:22:00;3.78;;;1.77;;
28022;SDS011;67403;50.104;8.758;2023-02-28T06:24:27;2.75;;;1.65;;
28022;SDS011;67403;50.104;8.758;2023-02-28T06:26:55;2.25;;;2.05;;
28022;SDS011;67403;50.104;8.758;2023-02-28T06:29:24;6.05;;;2.15;;
28022;SDS011;67403;50.104;8.758;2023-02-28T06:31:51;3.97;;;2.10;;
28022;SDS011;67403;50.104;8.758;2023-02-28T06:34:18;3.75;;;2.00;;
28022;SDS011;67403;50.104;8.758;2023-02-28T06:36:45;3.33;;;1.75;;
28022;SDS011;67403;50.104;8.758;2023-02-28T06:39:13;2.38;;;1.83;;
28022;SDS011;67403;50.104;8.758;2023-02-28T06:41:40;3.53;;;2.20;;
28022;SDS011;67403;50.104;8.758;2023-02-28T06:44:10;4.05;;;2.50;;
28022;SDS011;67403;50.104;8.758;2023-02-28T06:46:39;5.38;;;2.25;;
28022;SDS011;67403;50.104;8.758;2023-02-28T06:49:06;5.57;;;2.05;;
28022;SDS011;67403;50.104;8.758;2023-02-28T06:51:35;3.13;;;1.92;;
28022;SDS011;67403;50.104;8.758;2023-02-28T06:54:03;3.40;;;1.80;;
28022;SDS011;67403;50.104;8.758;2023-02-28T06:56:32;2.55;;;1.95;;
28022;SDS011;67403;50.104;8.758;2023-02-28T06:58:58;3.45;;;2.33;;
28022;SDS011;67403;50.104;8.758;2023-02-28T07:01:27;5.65;;;2.70;;
28022;SDS011;67403;50.104;8.758;2023-02-28T07:03:54;15.75;;;5.82;;
28022;SDS011;67403;50.104;8.758;2023-02-28T07:06:21;4.07;;;2.33;;
28022;SDS011;67403;50.104;8.758;2023-02-28T07:08:49;12.02;;;4.68;;
28022;SDS011;67403;50.104;8.758;2023-02-28T07:11:17;4.63;;;2.83;;
28022;SDS011;67403;50.104;8.758;2023-02-28T07:13:45;8.63;;;2.67;;
28022;SDS011;67403;50.104;8.758;2023-02-28T07:16:12;6.57;;;2.15;;
28022;SDS011;67403;50.104;8.758;2023-02-28T07:18:40;5.07;;;2.90;;
28022;SDS011;67403;50.104;8.758;2023-02-28T07:21:07;6.28;;;2.67;;
28022;SDS011;67403;50.104;8.758;2023-02-28T07:23:35;5.10;;;2.72;;
28022;SDS011;67403;50.104;8.758;2023-02-28T07:26:04;3.83;;;2.50;;
28022;SDS011;67403;50.104;8.758;2023-02-28T07:28:32;3.80;;;2.55;;
28022;SDS011;67403;50.104;8.758;2023-02-28T07:31:04;4.72;;;2.60;;
28022;SDS011;67403;50.104;8.758;2023-02-28T07:33:31;6.82;;;2.97;;
28022;SDS011;67403;50.104;8.758;2023-02-28T07:36:02;4.63;;;3.10;;
28022;SDS011;67403;50.104;8.758;2023-02-28T07:38:31;7.13;;;3.42;;
28022;SDS011;67403;50.104;8.758;2023-02-28T07:41:00;5.43;;;2.30;;
28022;SDS011;67403;50.104;8.758;2023-02-28T07:43:29;2.78;;;2.00;;
28022;SDS011;67403;50.104;8.758;2023-02-28T07:46:00;7.72;;;2.65;;
28022;SDS011;67403;50.104;8.758;2023-02-28T07:48:29;6.13;;;2.72;;
28022;SDS011;67403;50.104;8.758;2023-02-28T07:50:57;4.97;;;2.70;;
28022;SDS011;67403;50.104;8.758;2023-02-28T07:53:24;12.13;;;4.10;;
28022;SDS011;67403;50.104;8.758;2023-02-28T07:55:54;6.30;;;2.80;;
28022;SDS011;67403;50.104;8.758;2023-02-28T07:58:22;11.75;;;3.78;;
28022;SDS011;67403;50.104;8.758;2023-02-28T08:00:49;5.32;;;2.85;;
28022;SDS011;67403;50.104;8.758;2023-02-28T08:03:16;5.57;;;2.47;;
28022;SDS011;67403;50.104;8.758;2023-02-28T08:05:45;5.43;;;2.67;;
28022;SDS011;67403;50.104;8.758;2023-02-28T08:08:13;5.47;;;2.92;;
28022;SDS011;67403;50.104;8.758;2023-02-28T08:10:40;3.63;;;2.45;;
28022;SDS011;67403;50.104;8.758;2023-02-28T08:13:07;4.65;;;3.08;;
28022;SDS011;67403;50.104;8.758;2023-02-28T08:15:34;6.80;;;2.53;;
28022;SDS011;67403;50.104;8.758;2023-02-28T08:18:01;3.22;;;2.00;;
28022;SDS011;67403;50.104;8.758;2023-02-28T08:20:28;5.68;;;2.58;;
28022;SDS011;67403;50.104;8.758;2023-02-28T08:22:57;4.72;;;2.45;;
28022;SDS011;67403;50.104;8.758;2023-02-28T08:25:24;4.70;;;2.60;;
28022;SDS011;67403;50.104;8.758;2023-02-28T08:27:51;7.53;;;2.90;;
28022;SDS011;67403;50.104;8.758;2023-02-28T08:30:18;6.32;;;3.45;;
28022;SDS011;67403;50.104;8.758;2023-02-28T08:32:45;5.07;;;2.60;;
28022;SDS011;67403;50.104;8.758;2023-02-28T08:35:12;5.95;;;2.78;;
28022;SDS011;67403;50.104;8.758;2023-02-28T08:37:39;4.90;;;2.63;;
28022;SDS011;67403;50.104;8.758;2023-02-28T08:40:08;6.93;;;2.38;;
28022;SDS011;67403;50.104;8.758;2023-02-28T08:42:36;5.60;;;2.60;;
28022;SDS011;67403;50.104;8.758;2023-02-28T08:45:03;4.63;;;2.67;;
28022;SDS011;67403;50.104;8.758;2023-02-28T08:47:30;5.60;;;3.10;;
28022;SDS011;67403;50.104;8.758;2023-02-28T08:49:57;4.60;;;2.55;;
28022;SDS011;67403;50.104;8.758;2023-02-28T08:52:24;7.35;;;3.30;;
28022;SDS011;67403;50.104;8.758;2023-02-28T08:54:51;6.43;;;2.70;;
28022;SDS011;67403;50.104;8.758;2023-02-28T08:57:19;3.15;;;2.28;;
28022;SDS011;67403;50.104;8.758;2023-02-28T08:59:46;5.40;;;2.95;;
28022;SDS011;67403;50.104;8.758;2023-02-28T09:02:13;5.82;;;2.95;;
28022;SDS011;67403;50.104;8.758;2023-02-28T09:04:41;5.05;;;2.47;;
28022;SDS011;67403;50.104;8.758;2023-02-28T09:07:10;4.38;;;2.70;;
28022;SDS011;67403;50.104;8.758;2023-02-28T09:09:37;3.80;;;2.22;;
28022;SDS011;67403;50.104;8.758;2023-02-28T09:12:20;7.22;;;2.65;;
28022;SDS011;67403;50.104;8.758;2023-02-28T09:14:47;4.90;;;3.05;;
28022;SDS011;67403;50.104;8.758;2023-02-28T09:17:14;3.97;;;2.50;;
28022;SDS011;67403;50.104;8.758;2023-02-28T09:19:41;5.05;;;2.70;;
28022;SDS011;67403;50.104;8.758;2023-02-28T09:22:08;7.07;;;3.03;;
28022;SDS011;67403;50.104;8.758;2023-02-28T09:24:35;6.93;;;2.70;;
28022;SDS011;67403;50.104;8.758;2023-02-28T09:27:02;4.05;;;2.30;;
28022;SDS011;67403;50.104;8.758;2023-02-28T09:29:32;3.72;;;2.60;;
28022;SDS011;67403;50.104;8.758;2023-02-28T09:32:00;4.80;;;2.93;;
28022;SDS011;67403;50.104;8.758;2023-02-28T09:34:27;3.90;;;2.88;;
28022;SDS011;67403;50.104;8.758;2023-02-28T09:36:55;6.65;;;2.67;;
28022;SDS011;67403;50.104;8.758;2023-02-28T09:39:23;4.60;;;2.90;;
28022;SDS011;67403;50.104;8.758;2023-02-28T09:41:52;3.95;;;2.80;;
28022;SDS011;67403;50.104;8.758;2023-02-28T09:44:22;6.20;;;2.58;;
28022;SDS011;67403;50.104;8.758;2023-02-28T09:46:57;4.30;;;2.83;;
28022;SDS011;67403;50.104;8.758;2023-02-28T09:49:28;4.78;;;2.88;;
28022;SDS011;67403;50.104;8.758;2023-02-28T09:52:01;6.25;;;3.00;;
28022;SDS011;67403;50.104;8.758;2023-02-28T09:54:31;7.18;;;2.60;;
28022;SDS011;67403;50.104;8.758;2023-02-28T09:56:59;6.43;;;2.95;;
28022;SDS011;67403;50.104;8.758;2023-02-28T09:59:36;5.05;;;2.95;;
28022;SDS011;67403;50.104;8.758;2023-02-28T10:02:16;7.20;;;3.40;;
28022;SDS011;67403;50.104;8.758;2023-02-28T10:04:51;6.07;;;3.40;;
28022;SDS011;67403;50.104;8.758;2023-02-28T10:07:35;12.70;;;4.47;;
28022;SDS011;67403;50.104;8.758;2023-02-28T10:10:15;5.88;;;2.80;;
28022;SDS011;67403;50.104;8.758;2023-02-28T10:12:48;6.05;;;3.63;;
28022;SDS011;67403;50.104;8.758;2023-02-28T10:15:19;5.88;;;3.17;;
28022;SDS011;67403;50.104;8.758;2023-02-28T10:17:51;6.82;;;3.35;;
28022;SDS011;67403;50.104;8.758;2023-02-28T10:20:23;6.93;;;3.47;;
28022;SDS011;67403;50.104;8.758;2023-02-28T10:22:57;4.72;;;2.92;;
28022;SDS011;67403;50.104;8.758;2023-02-28T10:25:32;4.82;;;3.10;;
28022;SDS011;67403;50.104;8.758;2023-02-28T10:28:00;7.35;;;3.55;;
28022;SDS011;67403;50.104;8.758;2023-02-28T10:30:34;5.97;;;2.72;;
28022;SDS011;67403;50.104;8.758;2023-02-28T10:33:05;7.00;;;3.03;;
28022;SDS011;67403;50.104;8.758;2023-02-28T10:35:32;4.65;;;3.15;;
28022;SDS011;67403;50.104;8.758;2023-02-28T10:37:59;9.85;;;3.97;;
28022;SDS011;67403;50.104;8.758;2023-02-28T10:40:36;9.18;;;4.18;;
28022;SDS011;67403;50.104;8.758;2023-02-28T10:43:03;7.05;;;3.50;;
28022;SDS011;67403;50.104;8.758;2023-02-28T10:45:32;6.75;;;3.03;;
28022;SDS011;67403;50.104;8.758;2023-02-28T10:48:02;5.75;;;3.20;;
28022;SDS011;67403;50.104;8.758;2023-02-28T10:50:34;5.63;;;2.85;;
28022;SDS011;67403;50.104;8.758;2023-02-28T10:53:16;8.55;;;3.58;;
28022;SDS011;67403;50.104;8.758;2023-02-28T10:55:56;3.40;;;2.80;;
28022;SDS011;67403;50.104;8.758;2023-02-28T10:58:24;5.97;;;3.28;;
28022;SDS011;67403;50.104;8.758;2023-02-28T11:00:53;5.20;;;3.30;;
28022;SDS011;67403;50.104;8.758;2023-02-28T11:03:29;7.13;;;3.28;;
28022;SDS011;67403;50.104;8.758;2023-02-28T11:05:57;7.65;;;3.90;;
28022;SDS011;67403;50.104;8.758;2023-02-28T11:08:29;5.95;;;3.67;;
28022;SDS011;67403;50.104;8.758;2023-02-28T11:10:58;5.97;;;3.45;;
28022;SDS011;67403;50.104;8.758;2023-02-28T11:13:28;5.60;;;3.30;;
28022;SDS011;67403;50.104;8.758;2023-02-28T11:16:00;5.30;;;3.35;;
28022;SDS011;67403;50.104;8.758;2023-02-28T11:18:32;6.68;;;3.90;;
28022;SDS011;67403;50.104;8.758;2023-02-28T11:21:05;8.93;;;4.00;;
28022;SDS011;67403;50.104;8.758;2023-02-28T11:23:33;6.75;;;3.88;;
28022;SDS011;67403;50.104;8.758;2023-02-28T11:26:03;7.10;;;4.28;;
28022;SDS011;67403;50.104;8.758;2023-02-28T11:28:35;4.68;;;3.42;;
28022;SDS011;67403;50.104;8.758;2023-02-28T11:31:05;5.65;;;4.00;;
28022;SDS011;67403;50.104;8.758;2023-02-28T11:33:43;8.32;;;3.83;;
28022;SDS011;67403;50.104;8.758;2023-02-28T11:36:14;7.60;;;4.50;;
28022;SDS011;67403;50.104;8.758;2023-02-28T11:38:44;5.53;;;3.97;;
28022;SDS011;67403;50.104;8.758;2023-02-28T11:41:16;5.50;;;3.97;;
28022;SDS011;67403;50.104;8.758;2023-02-28T11:44:11;6.32;;;4.32;;
28022;SDS011;67403;50.104;8.758;2023-02-28T11:46:49;5.95;;;4.13;;
28022;SDS011;67403;50.104;8.758;2023-02-28T11:49:27;6.57;;;4.45;;
28022;SDS011;67403;50.104;8.758;2023-02-28T11:52:01;5.28;;;3.90;;
28022;SDS011;67403;50.104;8.758;2023-02-28T11:54:45;6.32;;;4.45;;
28022;SDS011;67403;50.104;8.758;2023-02-28T11:57:29;7.05;;;4.30;;
28022;SDS011;67403;50.104;8.758;2023-02-28T12:00:03;5.35;;;3.83;;
28022;SDS011;67403;50.104;8.758;2023-02-28T12:05:23;6.55;;;4.63;;
28022;SDS011;67403;50.104;8.758;2023-02-28T12:07:58;6.40;;;4.50;;
28022;SDS011;67403;50.104;8.758;2023-02-28T12:10:33;9.38;;;4.57;;
28022;SDS011;67403;50.104;8.758;2023-02-28T12:13:12;5.15;;;4.32;;
28022;SDS011;67403;50.104;8.758;2023-02-28T12:18:39;6.97;;;4.32;;
28022;SDS011;67403;50.104;8.758;2023-02-28T12:21:29;4.10;;;3.70;;
28022;SDS011;67403;50.104;8.758;2023-02-28T12:24:17;8.38;;;4.35;;
28022;SDS011;67403;50.104;8.758;2023-02-28T12:27:09;10.68;;;4.38;;
28022;SDS011;67403;50.104;8.758;2023-02-28T12:29:41;6.38;;;4.35;;
28022;SDS011;67403;50.104;8.758;2023-02-28T12:32:15;7.22;;;4.43;;
28022;SDS011;67403;50.104;8.758;2023-02-28T12:34:48;6.18;;;4.18;;
28022;SDS011;67403;50.104;8.758;2023-02-28T12:37:21;8.07;;;4.90;;
28022;SDS011;67403;50.104;8.758;2023-02-28T12:39:54;6.47;;;4.57;;
28022;SDS011;67403;50.104;8.758;2023-02-28T12:42:26;7.82;;;5.25;;
28022;SDS011;67403;50.104;8.758;2023-02-28T12:44:56;8.32;;;4.75;;
28022;SDS011;67403;50.104;8.758;2023-02-28T12:47:27;6.13;;;4.43;;
28022;SDS011;67403;50.104;8.758;2023-02-28T12:49:55;7.15;;;4.95;;
28022;SDS011;67403;50.104;8.758;2023-02-28T12:52:28;4.97;;;4.13;;
28022;SDS011;67403;50.104;8.758;2023-02-28T12:55:03;6.38;;;4.70;;
28022;SDS011;67403;50.104;8.758;2023-02-28T12:57:34;8.43;;;5.05;;
28022;SDS011;67403;50.104;8.758;2023-02-28T13:00:10;6.32;;;4.47;;
28022;SDS011;67403;50.104;8.758;2023-02-28T13:02:47;6.60;;;4.28;;
28022;SDS011;67403;50.104;8.758;2023-02-28T13:08:26;4.40;;;3.95;;
28022;SDS011;67403;50.104;8.758;2023-02-28T13:11:25;5.82;;;4.05;;
28022;SDS011;67403;50.104;8.758;2023-02-28T13:13:58;8.65;;;5.05;;
28022;SDS011;67403;50.104;8.758;2023-02-28T13:16:28;6.32;;;4.72;;
28022;SDS011;67403;50.104;8.758;2023-02-28T13:19:21;8.45;;;5.18;;
28022;SDS011;67403;50.104;8.758;2023-02-28T13:21:50;9.30;;;5.28;;
28022;SDS011;67403;50.104;8.758;2023-02-28T13:27:20;6.28;;;4.68;;
28022;SDS011;67403;50.104;8.758;2023-02-28T13:29:50;7.05;;;4.75;;
28022;SDS011;67403;50.104;8.758;2023-02-28T13:38:12;8.85;;;5.15;;
28022;SDS011;67403;50.104;8.758;2023-02-28T13:44:00;7.57;;;5.00;;
28022;SDS011;67403;50.104;8.758;2023-02-28T13:46:30;6.15;;;4.35;;
28022;SDS011;67403;50.104;8.758;2023-02-28T13:51:46;7.22;;;4.32;;
28022;SDS011;67403;50.104;8.758;2023-02-28T13:54:25;7.90;;;4.75;;
28022;SDS011;67403;50.104;8.758;2023-02-28T13:57:04;10.25;;;5.95;;
28022;SDS011;67403;50.104;8.758;2023-02-28T13:59:43;7.70;;;4.55;;
28022;SDS011;67403;50.104;8.758;2023-02-28T14:02:28;7.72;;;5.05;;
28022;SDS011;67403;50.104;8.758;2023-02-28T14:05:12;6.13;;;4.50;;
28022;SDS011;67403;50.104;8.758;2023-02-28T14:07:42;7.30;;;5.13;;
28022;SDS011;67403;50.104;8.758;2023-02-28T14:10:20;7.28;;;5.28;;
28022;SDS011;67403;50.104;8.758;2023-02-28T14:12:52;6.90;;;4.65;;
28022;SDS011;67403;50.104;8.758;2023-02-28T14:15:30;8.20;;;5.00;;
28022;SDS011;67403;50.104;8.758;2023-02-28T14:18:22;6.82;;;4.75;;
28022;SDS011;67403;50.104;8.758;2023-02-28T14:20:52;6.50;;;5.10;;
28022;SDS011;67403;50.104;8.758;2023-02-28T14:26:13;7.72;;;4.97;;
28022;SDS011;67403;50.104;8.758;2023-02-28T14:28:56;7.72;;;5.40;;
28022;SDS011;67403;50.104;8.758;2023-02-28T14:31:48;10.50;;;6.15;;
28022;SDS011;67403;50.104;8.758;2023-02-28T14:34:25;10.50;;;5.60;;
28022;SDS011;67403;50.104;8.758;2023-02-28T14:37:02;9.38;;;5.85;;
28022;SDS011;67403;50.104;8.758;2023-02-28T14:39:30;7.07;;;4.97;;
28022;SDS011;67403;50.104;8.758;2023-02-28T14:41:58;8.02;;;5.32;;
28022;SDS011;67403;50.104;8.758;2023-02-28T14:44:29;7.25;;;5.13;;
28022;SDS011;67403;50.104;8.758;2023-02-28T14:46:59;7.72;;;5.65;;
28022;SDS011;67403;50.104;8.758;2023-02-28T14:49:30;6.97;;;4.63;;
28022;SDS011;67403;50.104;8.758;2023-02-28T14:52:05;7.72;;;5.20;;
28022;SDS011;67403;50.104;8.758;2023-02-28T14:54:35;7.20;;;4.93;;
28022;SDS011;67403;50.104;8.758;2023-02-28T14:57:02;10.30;;;5.30;;
28022;SDS011;67403;50.104;8.758;2023-02-28T14:59:31;7.65;;;5.03;;
28022;SDS011;67403;50.104;8.758;2023-02-28T15:02:19;9.15;;;6.50;;
28022;SDS011;67403;50.104;8.758;2023-02-28T15:04:54;10.45;;;5.40;;
28022;SDS011;67403;50.104;8.758;2023-02-28T15:07:22;9.50;;;5.03;;
28022;SDS011;67403;50.104;8.758;2023-02-28T15:10:06;7.00;;;4.75;;
28022;SDS011;67403;50.104;8.758;2023-02-28T15:12:35;9.85;;;5.57;;
28022;SDS011;67403;50.104;8.758;2023-02-28T15:15:03;8.63;;;4.93;;
28022;SDS011;67403;50.104;8.758;2023-02-28T15:17:33;8.65;;;4.90;;
28022;SDS011;67403;50.104;8.758;2023-02-28T15:20:01;9.43;;;4.93;;
28022;SDS011;67403;50.104;8.758;2023-02-28T15:22:29;8.05;;;5.18;;
28022;SDS011;67403;50.104;8.758;2023-02-28T15:25:01;10.88;;;5.25;;
28022;SDS011;67403;50.104;8.758;2023-02-28T15:27:32;9.48;;;5.00;;
28022;SDS011;67403;50.104;8.758;2023-02-28T15:30:05;9.55;;;5.25;;
28022;SDS011;67403;50.104;8.758;2023-02-28T15:32:41;6.75;;;4.53;;
28022;SDS011;67403;50.104;8.758;2023-02-28T15:35:17;6.72;;;4.43;;
28022;SDS011;67403;50.104;8.758;2023-02-28T15:37:47;8.18;;;4.38;;
28022;SDS011;67403;50.104;8.758;2023-02-28T15:40:23;7.88;;;4.28;;
28022;SDS011;67403;50.104;8.758;2023-02-28T15:42:59;13.30;;;6.10;;
28022;SDS011;67403;50.104;8.758;2023-02-28T15:45:34;11.93;;;5.93;;
28022;SDS011;67403;50.104;8.758;2023-02-28T15:48:10;8.52;;;4.47;;